Time;durP1;ratioP1;P1;durP2;ratioP2;P2;SDS_P1;SDS_P2;PMS_P1;PMS_P2;Temp;Humidity;BMP_temperature;BMP_pressure;BME280_temperature;BME280_humidity;BME280_pressure;Samples;Min_cycle;Max_cycle;Signal;HPM_P1;HPM_P2
2022/02/19 00:00:24;;;;;;;8.00;1.45;;;;;;;6.49;47.67;98868.56;5104828;27;20523;-86
2022/02/19 00:02:52;;;;;;;2.55;0.80;;;;;;;6.49;47.20;98833.94;5086657;27;20675;-86
2022/02/19 00:05:19;;;;;;;11.38;1.40;;;;;;;6.41;47.96;98871.34;5089323;27;20056;-86
2022/02/19 00:07:46;;;;;;;5.18;1.05;;;;;;;6.37;47.96;98869.66;5087104;27;20040;-85
2022/02/19 00:10:15;;;;;;;5.82;1.77;;;;;;;6.40;47.84;98854.03;5090607;27;20059;-86
2022/02/19 00:12:41;;;;;;;12.15;2.08;;;;;;;6.35;48.05;98881.88;5084191;27;20233;-86
2022/02/19 00:15:09;;;;;;;6.07;1.63;;;;;;;6.29;48.50;98892.38;5104593;27;20138;-86
2022/02/19 00:17:35;;;;;;;9.32;1.80;;;;;;;6.28;48.23;98856.88;5089069;27;21537;-86
2022/02/19 00:20:02;;;;;;;4.43;1.05;;;;;;;6.26;47.65;98875.09;5097509;27;20058;-85
2022/02/19 00:22:29;;;;;;;7.63;2.08;;;;;;;6.22;48.35;98902.03;5099186;27;20047;-86
2022/02/19 00:24:55;;;;;;;8.50;1.75;;;;;;;6.20;48.49;98872.63;5097660;27;20126;-85
2022/02/19 00:27:22;;;;;;;7.28;1.52;;;;;;;6.17;48.66;98883.06;5106181;27;20053;-86
2022/02/19 00:29:49;;;;;;;11.85;2.00;;;;;;;6.17;48.52;98909.06;5088557;27;20326;-86
2022/02/19 00:32:15;;;;;;;6.18;1.67;;;;;;;6.18;49.10;98920.28;5097331;27;20861;-86
2022/02/19 00:34:42;;;;;;;12.50;2.15;;;;;;;6.22;48.78;98868.25;5103158;27;20045;-86
2022/02/19 00:37:09;;;;;;;8.35;1.67;;;;;;;6.25;48.65;98839.59;5102433;27;20054;-86
2022/02/19 00:39:35;;;;;;;9.45;2.50;;;;;;;6.26;48.74;98897.66;5083485;27;21731;-85
2022/02/19 00:42:05;;;;;;;10.43;1.60;;;;;;;6.25;49.11;98920.16;5106379;27;20058;-86
2022/02/19 00:44:33;;;;;;;10.85;2.42;;;;;;;6.18;49.87;98922.91;5101853;27;20045;-85
2022/02/19 00:47:00;;;;;;;7.85;1.52;;;;;;;6.17;50.30;98913.41;5115040;27;20066;-85
2022/02/19 00:49:27;;;;;;;6.45;1.48;;;;;;;6.18;49.74;98922.91;5109241;27;20048;-86
2022/02/19 00:51:54;;;;;;;10.38;2.25;;;;;;;6.17;49.52;98919.44;5113196;27;20051;-86
2022/02/19 00:54:20;;;;;;;3.78;1.40;;;;;;;6.15;49.51;98949.78;5091449;27;20051;-86
2022/02/19 00:56:47;;;;;;;8.18;1.55;;;;;;;6.13;50.13;98936.00;5099099;27;20070;-86
2022/02/19 00:59:14;;;;;;;9.70;2.58;;;;;;;6.14;49.91;98966.28;5098583;27;20144;-85
2022/02/19 01:01:40;;;;;;;3.40;1.45;;;;;;;6.14;50.10;98963.69;5105187;27;20403;-84
2022/02/19 01:04:07;;;;;;;12.63;1.85;;;;;;;6.15;49.27;98964.53;5109988;27;20051;-85
2022/02/19 01:06:34;;;;;;;5.85;1.52;;;;;;;6.20;49.25;98937.56;5092857;27;20067;-85
2022/02/19 01:09:00;;;;;;;6.05;1.58;;;;;;;6.20;49.76;98915.94;5092661;27;20039;-85
2022/02/19 01:11:27;;;;;;;6.57;1.88;;;;;;;6.15;50.18;98993.97;5088478;27;20043;-86
2022/02/19 01:13:53;;;;;;;9.77;1.50;;;;;;;6.11;49.94;98984.50;5102534;27;20050;-85
2022/02/19 01:16:20;;;;;;;5.82;1.77;;;;;;;6.13;49.80;98990.53;5107820;27;20055;-85
2022/02/19 01:18:47;;;;;;;8.23;1.10;;;;;;;6.11;50.29;98990.56;5086600;27;20059;-85
2022/02/19 01:21:17;;;;;;;6.60;2.25;;;;;;;6.06;50.30;98991.53;5093044;27;20035;-85
2022/02/19 01:23:45;;;;;;;5.18;2.35;;;;;;;6.05;50.51;98961.22;5098226;27;20043;-85
2022/02/19 01:26:11;;;;;;;8.07;1.17;;;;;;;6.00;50.88;99007.22;5085449;27;20043;-85
2022/02/19 01:28:38;;;;;;;6.72;1.23;;;;;;;5.94;51.10;99034.13;5092380;27;20047;-85
2022/02/19 01:31:05;;;;;;;3.60;1.08;;;;;;;5.88;51.43;99042.00;5083357;27;20048;-85
2022/02/19 01:33:33;;;;;;;6.95;1.73;;;;;;;5.83;51.98;99036.00;5090344;27;20047;-85
2022/02/19 01:35:59;;;;;;;8.65;1.20;;;;;;;5.78;51.93;99088.03;5104655;27;20104;-85
2022/02/19 01:38:28;;;;;;;4.65;1.00;;;;;;;5.78;51.97;99033.50;5082240;28;20057;-85
2022/02/19 01:40:55;;;;;;;2.58;1.20;;;;;;;5.75;52.34;99085.47;5101539;27;20042;-85
2022/02/19 01:43:21;;;;;;;4.35;0.82;;;;;;;5.76;51.84;99058.63;5098275;27;20422;-85
2022/02/19 01:45:48;;;;;;;8.60;1.52;;;;;;;5.71;52.29;99094.19;5113119;27;20058;-85
2022/02/19 01:48:16;;;;;;;4.93;1.40;;;;;;;5.65;52.39;99045.81;5097725;27;20039;-85
2022/02/19 01:50:44;;;;;;;8.35;1.00;;;;;;;5.69;52.36;99083.81;5081255;27;20128;-85
2022/02/19 01:53:11;;;;;;;4.25;1.15;;;;;;;5.62;52.62;99031.13;5097508;27;20180;-85
2022/02/19 01:55:38;;;;;;;9.85;1.95;;;;;;;5.59;53.05;99066.66;5082982;28;20724;-85
2022/02/19 01:58:06;;;;;;;11.13;3.40;;;;;;;5.61;53.08;99075.31;5075715;27;20047;-85
2022/02/19 02:00:33;;;;;;;12.85;1.83;;;;;;;5.57;52.98;98955.06;5094583;27;20051;-85
2022/02/19 02:03:00;;;;;;;7.55;1.40;;;;;;;5.52;53.22;99089.25;5082944;27;20501;-85
2022/02/19 02:05:27;;;;;;;7.47;1.50;;;;;;;5.55;53.24;99091.78;5107496;27;20153;-85
2022/02/19 02:07:53;;;;;;;3.67;0.98;;;;;;;5.56;53.25;99054.59;5083134;27;20044;-85
2022/02/19 02:10:20;;;;;;;5.30;1.73;;;;;;;5.52;53.21;99065.91;5078313;27;20047;-85
2022/02/19 02:12:46;;;;;;;6.65;1.20;;;;;;;5.58;53.31;99072.72;5084870;27;20126;-85
2022/02/19 02:15:28;;;;;;;2.53;1.35;;;;;;;5.52;53.70;99039.94;5108385;27;20051;-86
2022/02/19 02:17:57;;;;;;;3.67;1.08;;;;;;;5.48;53.82;99087.59;5102411;27;20193;-85
2022/02/19 02:20:24;;;;;;;10.10;1.33;;;;;;;5.54;53.69;99033.00;5086532;28;20066;-85
2022/02/19 02:22:50;;;;;;;5.82;1.27;;;;;;;5.52;54.12;99088.41;5082970;28;20998;-86
2022/02/19 02:25:33;;;;;;;5.90;1.30;;;;;;;5.47;54.23;99078.06;5087332;28;20054;-86
2022/02/19 02:28:00;;;;;;;6.80;2.53;;;;;;;5.45;54.92;99072.06;5084186;28;20058;-86
2022/02/19 02:30:27;;;;;;;3.63;0.70;;;;;;;5.43;54.84;99089.38;5111352;27;20032;-86
2022/02/19 02:32:53;;;;;;;9.95;1.73;;;;;;;5.42;55.18;99111.00;5102108;28;20059;-86
2022/02/19 02:35:20;;;;;;;6.38;1.17;;;;;;;5.40;55.58;99089.44;5087372;28;20051;-85
2022/02/19 02:37:47;;;;;;;5.47;1.30;;;;;;;5.36;56.83;99122.34;5099457;27;20048;-85
2022/02/19 02:40:14;;;;;;;8.90;1.83;;;;;;;5.27;58.16;99148.41;5111478;27;20051;-86
2022/02/19 02:42:41;;;;;;;8.02;1.20;;;;;;;5.25;57.92;99129.38;5085951;28;20054;-86
2022/02/19 02:45:08;;;;;;;8.23;1.10;;;;;;;5.19;58.62;99142.41;5105150;27;20118;-85
2022/02/19 02:47:40;;;;;;;3.75;1.48;;;;;;;5.17;58.44;99172.72;5084337;28;20043;-85
2022/02/19 02:50:08;;;;;;;6.80;1.13;;;;;;;5.15;59.25;99175.34;5088870;28;20049;-86
2022/02/19 02:52:35;;;;;;;7.93;2.00;;;;;;;5.06;60.21;99173.69;5083855;28;20048;-86
2022/02/19 02:55:03;;;;;;;3.72;0.80;;;;;;;4.99;61.11;99186.75;5100194;27;20051;-85
2022/02/19 02:57:30;;;;;;;4.55;1.05;;;;;;;4.95;61.34;99180.72;5101714;28;20048;-86
2022/02/19 02:59:56;;;;;;;5.75;1.33;;;;;;;4.92;61.82;99214.47;5081012;28;20551;-85
2022/02/19 03:02:23;;;;;;;6.45;1.20;;;;;;;4.97;60.92;99223.06;5091074;28;20047;-85
2022/02/19 03:04:50;;;;;;;5.05;1.02;;;;;;;4.98;61.61;99217.00;5080567;28;20485;-85
2022/02/19 03:07:16;;;;;;;3.55;0.82;;;;;;;4.91;62.22;99233.50;5101824;27;20140;-86
2022/02/19 03:09:43;;;;;;;9.02;1.27;;;;;;;4.85;63.77;99249.97;5083349;28;20050;-86
2022/02/19 03:12:11;;;;;;;3.05;1.10;;;;;;;4.79;64.64;99265.56;5092326;28;20159;-86
2022/02/19 03:14:37;;;;;;;9.63;1.08;;;;;;;4.71;64.57;99275.16;5108320;27;20056;-85
2022/02/19 03:17:05;;;;;;;8.73;1.60;;;;;;;4.69;65.08;99276.88;5097807;27;20043;-84
2022/02/19 03:19:32;;;;;;;4.57;1.38;;;;;;;4.61;66.16;99295.06;5097800;27;20055;-84
2022/02/19 03:21:58;;;;;;;10.48;2.28;;;;;;;4.51;68.88;99307.25;5104697;27;20055;-86
2022/02/19 03:24:25;;;;;;;4.88;1.63;;;;;;;4.32;70.01;99303.88;5086579;27;20054;-87
2022/02/19 03:26:51;;;;;;;13.80;2.15;;;;;;;4.23;70.72;99275.44;5107415;27;20552;-85
2022/02/19 03:29:21;;;;;;;6.53;1.55;;;;;;;4.19;71.23;99318.63;5085075;27;20843;-86
2022/02/19 03:31:48;;;;;;;8.00;1.38;;;;;;;4.18;70.50;99318.63;5088224;27;20043;-86
2022/02/19 03:34:14;;;;;;;4.90;1.00;;;;;;;4.23;70.00;99346.22;5095579;27;20069;-86
2022/02/19 03:36:41;;;;;;;6.30;1.52;;;;;;;4.29;69.74;99303.91;5086520;27;20051;-86
2022/02/19 03:39:08;;;;;;;8.43;1.30;;;;;;;4.21;72.43;99339.31;5087111;27;20052;-86
2022/02/19 03:41:36;;;;;;;7.85;1.52;;;;;;;3.95;74.55;99323.03;5084967;27;20642;-84
2022/02/19 03:44:03;;;;;;;4.20;0.77;;;;;;;3.83;76.09;99328.22;5090860;27;20054;-86
2022/02/19 03:46:31;;;;;;;8.18;1.30;;;;;;;3.78;77.33;99355.84;5121089;27;20484;-85
2022/02/19 03:48:58;;;;;;;6.38;1.40;;;;;;;3.79;74.13;99337.75;5072710;27;20508;-85
2022/02/19 03:51:25;;;;;;;8.27;1.23;;;;;;;3.91;73.70;99367.03;5099548;27;20128;-86
2022/02/19 03:53:52;;;;;;;5.75;1.10;;;;;;;3.92;74.59;99385.16;5098614;27;20048;-86
2022/02/19 03:56:18;;;;;;;3.15;1.23;;;;;;;4.00;73.21;99405.84;5102425;27;20082;-85
2022/02/19 03:58:45;;;;;;;7.30;0.80;;;;;;;4.10;72.76;99420.50;5087649;27;20135;-85
2022/02/19 04:01:12;;;;;;;4.40;0.88;;;;;;;4.09;73.13;99403.28;5105406;27;20031;-85
2022/02/19 04:03:38;;;;;;;8.60;1.20;;;;;;;4.05;73.55;99444.72;5104884;27;20387;-86
2022/02/19 04:06:05;;;;;;;6.05;1.58;;;;;;;4.10;73.61;99449.00;5087547;27;20043;-87
2022/02/19 04:08:31;;;;;;;5.13;1.45;;;;;;;4.05;74.24;99455.91;5107054;27;20078;-86
2022/02/19 04:10:58;;;;;;;3.70;1.17;;;;;;;4.06;74.37;99464.56;5093644;27;20048;-85
2022/02/19 04:13:25;;;;;;;5.70;1.02;;;;;;;3.97;76.08;99457.66;5085989;27;20055;-85
2022/02/19 04:15:51;;;;;;;2.90;1.40;;;;;;;3.84;77.39;99459.41;5089630;27;20075;-86
2022/02/19 04:18:18;;;;;;;4.53;2.25;;;;;;;3.83;78.00;99491.31;5120001;27;20043;-86
2022/02/19 04:20:45;;;;;;;4.38;0.90;;;;;;;3.74;79.25;99505.16;5109800;27;20528;-86
2022/02/19 04:23:11;;;;;;;7.10;1.33;;;;;;;3.66;80.63;99506.84;5104542;27;20425;-85
2022/02/19 04:25:38;;;;;;;4.03;1.20;;;;;;;3.67;80.48;99508.59;5106047;27;20085;-86
2022/02/19 04:28:10;;;;;;;8.00;1.00;;;;;;;3.62;81.35;99526.72;5087981;27;20051;-86
2022/02/19 04:30:37;;;;;;;3.97;1.30;;;;;;;3.58;80.78;99534.47;5121276;27;20046;-85
2022/02/19 04:33:04;;;;;;;3.35;1.20;;;;;;;3.59;81.10;99552.56;5084856;27;20563;-85
2022/02/19 04:35:34;;;;;;;5.93;2.80;;;;;;;3.58;81.44;99519.78;5096082;27;20486;-86
2022/02/19 04:38:00;;;;;;;5.03;2.22;;;;;;;3.58;81.87;99531.88;5083011;27;20138;-85
2022/02/19 04:40:27;;;;;;;7.32;1.98;;;;;;;3.55;81.96;99558.59;5086734;27;20051;-85
2022/02/19 04:42:53;;;;;;;5.53;1.08;;;;;;;3.54;82.13;99569.81;5112271;27;20090;-85
2022/02/19 04:45:20;;;;;;;5.47;1.27;;;;;;;3.51;82.86;99556.88;5086736;27;20071;-86
2022/02/19 04:47:47;;;;;;;5.15;1.13;;;;;;;3.47;83.59;99594.81;5102388;27;20128;-86
2022/02/19 04:50:14;;;;;;;7.95;2.33;;;;;;;3.42;84.08;99567.22;5089594;27;20089;-85
2022/02/19 04:52:43;;;;;;;2.72;0.93;;;;;;;3.37;85.27;99587.88;5094699;27;20054;-85
2022/02/19 04:55:11;;;;;;;5.45;1.15;;;;;;;3.33;86.18;99585.28;5110336;27;20097;-86
2022/02/19 04:57:43;;;;;;;4.75;1.02;;;;;;;3.27;86.02;99597.34;5102209;27;20039;-86
2022/02/19 05:00:15;;;;;;;5.68;1.05;;;;;;;3.24;86.63;99605.06;5103821;27;20051;-86
2022/02/19 05:02:41;;;;;;;4.18;1.52;;;;;;;3.25;85.55;99603.38;5087308;27;20045;-86
2022/02/19 05:05:11;;;;;;;4.35;1.10;;;;;;;3.25;85.76;99618.88;5092177;27;20496;-86
2022/02/19 05:07:38;;;;;;;2.35;1.02;;;;;;;3.28;85.64;99617.16;5081338;27;20393;-85
2022/02/19 05:10:06;;;;;;;5.10;1.15;;;;;;;3.30;85.50;99609.44;5089351;27;20063;-85
2022/02/19 05:12:33;;;;;;;3.95;1.42;;;;;;;3.33;84.59;99637.88;5100395;27;20043;-86
2022/02/19 05:15:03;;;;;;;1.33;0.60;;;;;;;3.33;84.13;99639.63;5085425;27;21357;-86
2022/02/19 05:17:30;;;;;;;2.92;1.20;;;;;;;3.34;84.28;99624.09;5103226;27;20645;-86
2022/02/19 05:19:56;;;;;;;4.82;1.33;;;;;;;3.37;83.20;99637.03;5097127;27;20047;-85
2022/02/19 05:22:23;;;;;;;5.93;1.38;;;;;;;3.39;83.83;99652.53;5097053;27;20052;-86
2022/02/19 05:24:49;;;;;;;2.92;0.95;;;;;;;3.39;83.80;99657.72;5092487;27;20051;-85
2022/02/19 05:27:16;;;;;;;2.78;0.77;;;;;;;3.38;83.96;99681.88;5099078;27;20083;-85
2022/02/19 05:29:43;;;;;;;10.73;1.70;;;;;;;3.38;84.34;99687.06;5089632;27;20047;-86
2022/02/19 05:32:09;;;;;;;2.58;1.33;;;;;;;3.36;83.91;99697.38;5089329;27;20071;-85
2022/02/19 05:34:36;;;;;;;3.53;1.30;;;;;;;3.38;83.44;99711.19;5097417;27;20075;-86
2022/02/19 05:37:03;;;;;;;3.58;0.80;;;;;;;3.46;82.28;99686.22;5106053;27;20053;-86
2022/02/19 05:39:30;;;;;;;4.80;0.98;;;;;;;3.52;80.46;99694.88;5092541;27;20043;-86
2022/02/19 05:41:56;;;;;;;2.47;1.15;;;;;;;3.55;80.52;99702.66;5104978;27;20054;-86
2022/02/19 05:44:23;;;;;;;4.22;0.65;;;;;;;3.63;79.64;99696.63;5091692;27;20180;-86
2022/02/19 05:46:49;;;;;;;5.93;1.08;;;;;;;3.64;79.92;99719.06;5082059;28;20055;-85
2022/02/19 05:49:16;;;;;;;4.65;1.02;;;;;;;3.54;81.76;99709.53;5101389;27;20047;-86
2022/02/19 05:51:42;;;;;;;7.60;2.05;;;;;;;3.45;83.23;99709.50;5078347;27;20364;-85
2022/02/19 05:54:09;;;;;;;4.60;1.02;;;;;;;3.34;85.23;99734.44;5104208;27;20584;-86
2022/02/19 05:56:36;;;;;;;5.13;1.02;;;;;;;3.27;85.37;99730.97;5108849;27;20443;-86
2022/02/19 05:59:03;;;;;;;7.07;1.52;;;;;;;3.19;86.94;99730.91;5085050;27;20051;-86
2022/02/19 06:01:30;;;;;;;8.15;0.90;;;;;;;3.11;87.91;99728.28;5087695;27;20113;-85
2022/02/19 06:03:56;;;;;;;4.63;0.93;;;;;;;2.94;90.94;99751.44;5100277;27;20667;-85
2022/02/19 06:06:23;;;;;;;6.82;1.65;;;;;;;2.78;92.99;99740.13;5086362;28;20058;-86
2022/02/19 06:08:50;;;;;;;6.50;0.93;;;;;;;2.64;94.91;99757.22;5090120;27;20147;-86
2022/02/19 06:11:16;;;;;;;6.30;1.27;;;;;;;2.55;95.91;99765.75;5081079;28;20950;-87
2022/02/19 06:13:43;;;;;;;4.05;1.00;;;;;;;2.51;96.74;99764.00;5093604;28;20559;-87
2022/02/19 06:16:09;;;;;;;8.20;1.30;;;;;;;2.52;96.15;99781.22;5084447;27;20051;-87
2022/02/19 06:18:36;;;;;;;8.23;0.95;;;;;;;2.53;94.65;99776.91;5103355;27;20047;-87
2022/02/19 06:21:03;;;;;;;4.15;1.20;;;;;;;2.61;92.71;99759.78;5095351;28;20057;-86
2022/02/19 06:23:29;;;;;;;2.05;0.75;;;;;;;2.71;91.88;99781.41;5083212;28;20044;-87
2022/02/19 06:25:56;;;;;;;13.85;2.25;;;;;;;2.75;91.06;99801.25;5091748;28;20163;-86
2022/02/19 06:28:22;;;;;;;7.60;2.35;;;;;;;2.78;91.44;99796.13;5090324;28;20081;-86
2022/02/19 06:30:49;;;;;;;9.68;1.75;;;;;;;2.86;88.51;99802.22;5100649;27;20051;-86
2022/02/19 06:33:16;;;;;;;9.35;1.23;;;;;;;2.97;85.41;99807.47;5097274;28;20039;-86
2022/02/19 06:35:42;;;;;;;7.00;1.20;;;;;;;3.02;85.44;99807.50;5083556;28;20051;-86
2022/02/19 06:38:09;;;;;;;5.88;1.25;;;;;;;3.07;85.51;99811.84;5098883;28;20155;-86
2022/02/19 06:40:35;;;;;;;3.42;1.02;;;;;;;3.15;81.75;99822.28;5080177;28;21104;-86
2022/02/19 06:43:02;;;;;;;8.70;1.77;;;;;;;3.22;81.72;99824.06;5089126;28;20044;-87
2022/02/19 06:45:28;;;;;;;10.50;1.33;;;;;;;3.26;80.11;99818.06;5101325;27;20056;-85
2022/02/19 06:47:55;;;;;;;3.78;1.23;;;;;;;3.35;79.41;99840.53;5082889;28;20482;-86
2022/02/19 06:50:22;;;;;;;1.85;1.30;;;;;;;3.54;75.86;99836.34;5108907;28;20043;-86
2022/02/19 06:52:48;;;;;;;5.68;1.48;;;;;;;3.68;74.23;99845.91;5090410;28;20106;-86
2022/02/19 06:55:15;;;;;;;8.13;1.92;;;;;;;3.75;73.80;99851.13;5105322;28;20054;-86
2022/02/19 06:57:42;;;;;;;9.25;1.27;;;;;;;3.85;72.17;99836.53;5102131;27;20155;-85
2022/02/19 07:00:11;;;;;;;10.02;1.40;;;;;;;3.93;72.45;99857.28;5087033;28;20062;-85
2022/02/19 07:02:37;;;;;;;6.78;1.83;;;;;;;4.00;71.19;99884.06;5092542;27;20512;-85
2022/02/19 07:05:05;;;;;;;11.27;1.48;;;;;;;4.07;70.65;99867.72;5087558;28;20052;-85
2022/02/19 07:07:32;;;;;;;9.55;2.35;;;;;;;4.09;70.83;99879.81;5084726;27;20073;-84
2022/02/19 07:09:59;;;;;;;9.52;1.83;;;;;;;4.07;71.10;99893.63;5087764;27;20630;-85
2022/02/19 07:12:25;;;;;;;3.53;0.98;;;;;;;4.09;70.02;99897.97;5075828;27;20043;-85
2022/02/19 07:14:52;;;;;;;4.97;0.65;;;;;;;4.12;69.02;99872.06;5083573;27;20447;-85
2022/02/19 07:17:18;;;;;;;7.97;1.52;;;;;;;4.18;68.81;99897.13;5100941;27;20039;-85
2022/02/19 07:19:45;;;;;;;5.63;1.10;;;;;;;4.12;69.49;99910.06;5090974;27;20054;-85
2022/02/19 07:22:12;;;;;;;5.45;1.35;;;;;;;4.06;69.30;99925.56;5106248;27;20031;-84
2022/02/19 07:24:38;;;;;;;5.50;1.70;;;;;;;3.98;70.00;99931.53;5088080;27;20208;-85
2022/02/19 07:27:06;;;;;;;7.15;1.63;;;;;;;3.93;69.62;99885.78;5088936;27;20055;-86
2022/02/19 07:29:32;;;;;;;6.53;0.88;;;;;;;3.89;69.89;99941.84;5080816;27;20047;-85
2022/02/19 07:31:59;;;;;;;4.30;1.48;;;;;;;3.99;68.59;99942.78;5100711;27;20036;-86
2022/02/19 07:34:35;;;;;;;5.90;1.50;;;;;;;4.10;68.71;99943.69;5101364;27;20072;-86
2022/02/19 07:37:02;;;;;;;6.82;2.08;;;;;;;4.26;68.08;99957.63;5103749;27;20097;-86
2022/02/19 07:39:28;;;;;;;4.85;1.38;;;;;;;4.28;67.69;99966.25;5102275;27;20061;-87
2022/02/19 07:41:55;;;;;;;7.28;1.50;;;;;;;4.35;67.75;99977.50;5101343;27;20044;-85
2022/02/19 07:44:22;;;;;;;7.28;1.25;;;;;;;4.37;67.73;99987.88;5094275;27;20108;-86
2022/02/19 07:46:48;;;;;;;5.25;0.82;;;;;;;4.35;67.88;99977.50;5108136;27;20126;-86
2022/02/19 08:00:11;;;;;;;14.07;2.88;;;;;;;4.31;67.29;100009.47;5095039;27;20400;-88
2022/02/19 08:02:40;;;;;;;6.25;1.40;;;;;;;4.29;67.26;100025.00;5110427;27;20055;-86
2022/02/19 08:05:09;;;;;;;9.25;1.30;;;;;;;4.27;67.62;100042.25;5119246;27;20051;-84
2022/02/19 08:07:36;;;;;;;10.73;1.23;;;;;;;4.23;67.80;100035.31;5115404;27;20043;-88
2022/02/19 08:10:03;;;;;;;6.60;1.25;;;;;;;4.25;67.64;100038.78;5109352;27;20042;-87
2022/02/19 08:12:30;;;;;;;10.50;1.70;;;;;;;4.29;67.97;100044.88;5100577;27;20044;-83
2022/02/19 08:14:57;;;;;;;3.47;0.82;;;;;;;4.35;68.13;100067.34;5095090;27;20059;-82
2022/02/19 08:17:25;;;;;;;5.63;1.65;;;;;;;4.43;67.54;100070.84;5098010;27;20101;-82
2022/02/19 08:19:52;;;;;;;10.15;1.38;;;;;;;4.50;67.27;100082.13;5096003;27;20678;-87
2022/02/19 08:22:19;;;;;;;7.50;2.47;;;;;;;4.61;66.35;100083.06;5094352;27;20123;-87
2022/02/19 08:24:45;;;;;;;7.50;1.40;;;;;;;4.63;66.58;100074.44;5116497;27;20044;-84
2022/02/19 08:27:12;;;;;;;6.10;1.42;;;;;;;4.58;65.74;100060.59;5082116;27;20048;-89
2022/02/19 08:29:42;;;;;;;7.90;1.67;;;;;;;4.61;66.41;100103.81;5115953;27;20053;-85
2022/02/19 08:32:13;;;;;;;5.05;1.73;;;;;;;4.70;66.51;100095.25;5119379;27;20526;-84
2022/02/19 08:34:45;;;;;;;6.55;1.33;;;;;;;4.77;65.08;100099.59;5119544;27;20075;-85
2022/02/19 08:37:14;;;;;;;9.88;3.83;;;;;;;4.83;65.36;100098.78;5111793;27;20042;-84
2022/02/19 08:39:41;;;;;;;7.13;2.13;;;;;;;4.86;65.06;100111.75;5094065;27;20097;-89
2022/02/19 08:42:22;;;;;;;12.20;2.38;;;;;;;4.85;65.19;100122.97;5122254;27;20042;-86
2022/02/19 08:44:49;;;;;;;3.47;1.10;;;;;;;4.86;65.32;100135.09;5101222;27;20091;-82
2022/02/19 08:47:28;;;;;;;5.75;1.50;;;;;;;4.90;65.14;100119.56;5097378;27;20048;-82
2022/02/19 08:49:56;;;;;;;3.45;0.73;;;;;;;4.94;64.44;100144.66;5096944;27;20142;-82
2022/02/19 08:52:24;;;;;;;8.77;1.30;;;;;;;5.08;64.23;100142.13;5117052;27;20922;-82
2022/02/19 08:54:57;;;;;;;8.10;1.77;;;;;;;5.17;64.07;100166.41;5119943;27;20047;-82
2022/02/19 08:57:31;;;;;;;9.20;1.40;;;;;;;5.23;62.95;100137.88;5102564;27;20106;-82
2022/02/19 08:59:58;;;;;;;10.25;3.70;;;;;;;5.19;63.40;100149.09;5091927;27;20465;-85
2022/02/19 09:02:25;;;;;;;4.80;1.17;;;;;;;5.21;63.22;100153.44;5084890;27;20047;-83
2022/02/19 09:04:51;;;;;;;14.63;1.45;;;;;;;5.24;63.09;100163.84;5099955;27;20043;-84
2022/02/19 09:07:18;;;;;;;7.15;1.20;;;;;;;5.25;63.08;100170.78;5101786;27;20051;-82
2022/02/19 09:09:47;;;;;;;6.78;1.73;;;;;;;5.20;63.39;100180.25;5077584;27;20161;-84
2022/02/19 09:12:15;;;;;;;8.82;1.13;;;;;;;5.19;63.47;100167.25;5104373;27;20146;-86
2022/02/19 09:14:42;;;;;;;9.32;3.13;;;;;;;5.12;63.81;100159.47;5089265;27;20311;-85
2022/02/19 09:17:09;;;;;;;8.25;3.08;;;;;;;5.05;63.77;100174.97;5098547;27;20129;-84
2022/02/19 09:19:46;;;;;;;9.38;2.20;;;;;;;4.97;64.25;100193.09;5083672;27;21142;-83
2022/02/19 09:22:15;;;;;;;9.65;1.90;;;;;;;4.93;64.79;100192.19;5082809;27;20574;-83
2022/02/19 09:24:42;;;;;;;7.20;1.23;;;;;;;4.93;64.77;100199.97;5081531;27;20095;-83
2022/02/19 09:27:08;;;;;;;7.63;3.00;;;;;;;5.01;64.72;100204.38;5074025;27;20047;-84
2022/02/19 09:29:35;;;;;;;6.30;1.48;;;;;;;5.11;64.03;100190.56;5105821;27;20043;-84
2022/02/19 09:32:03;;;;;;;6.82;1.55;;;;;;;5.21;63.65;100215.69;5103241;27;20134;-83
2022/02/19 09:34:30;;;;;;;3.33;1.40;;;;;;;5.37;63.32;100208.00;5082503;27;20437;-84
2022/02/19 09:37:14;;;;;;;5.80;1.77;;;;;;;5.47;62.36;100222.78;5103897;27;20063;-86
2022/02/19 09:39:41;;;;;;;5.13;1.27;;;;;;;5.57;61.64;100219.38;5093574;27;20051;-83
2022/02/19 09:42:12;;;;;;;5.85;2.17;;;;;;;5.74;61.76;100219.44;5093283;27;20088;-86
2022/02/19 09:44:39;;;;;;;4.45;1.15;;;;;;;5.94;60.58;100235.09;5105323;27;20057;-86
2022/02/19 09:47:10;;;;;;;4.78;1.30;;;;;;;6.05;59.29;100213.47;5103990;27;20043;-85
2022/02/19 09:49:38;;;;;;;3.28;0.93;;;;;;;5.99;58.93;100255.91;5108651;27;20099;-82
2022/02/19 09:52:06;;;;;;;4.70;1.17;;;;;;;5.97;59.47;100250.69;5081179;27;20055;-83
2022/02/19 09:54:54;;;;;;;4.18;1.60;;;;;;;6.01;59.80;100232.53;5120696;27;20333;-83
2022/02/19 09:57:21;;;;;;;2.90;1.10;;;;;;;5.97;60.05;100275.78;5101295;27;20449;-83
2022/02/19 09:59:48;;;;;;;11.05;2.22;;;;;;;5.91;60.81;100270.59;5084440;27;20047;-84
2022/02/19 10:02:14;;;;;;;5.82;1.27;;;;;;;5.86;61.70;100280.09;5103331;28;20048;-84
2022/02/19 10:04:46;;;;;;;3.97;1.10;;;;;;;5.96;62.21;100269.72;5106756;27;20052;-83
2022/02/19 10:07:19;;;;;;;4.88;1.40;;;;;;;5.98;61.83;100298.34;5120838;27;20092;-85
2022/02/19 10:09:50;;;;;;;7.20;1.35;;;;;;;5.89;62.39;100293.09;5098718;28;20046;-85
2022/02/19 10:12:18;;;;;;;6.25;2.33;;;;;;;5.81;62.96;100308.63;5093012;28;20137;-85
2022/02/19 10:14:46;;;;;;;5.40;1.45;;;;;;;5.69;63.36;100305.97;5096974;27;20104;-85
2022/02/19 10:17:24;;;;;;;5.43;2.13;;;;;;;5.86;63.22;100317.31;5081854;28;20383;-86
2022/02/19 10:19:57;;;;;;;4.80;1.00;;;;;;;5.88;63.43;100326.00;5090287;27;20125;-85
2022/02/19 10:22:29;;;;;;;8.82;1.42;;;;;;;5.90;63.41;100331.19;5104231;28;20046;-85
2022/02/19 10:24:58;;;;;;;6.15;1.20;;;;;;;5.90;63.17;100313.00;5114189;28;20054;-86
2022/02/19 10:27:54;;;;;;;6.25;1.38;;;;;;;5.80;62.89;100330.25;5100833;28;20051;-84
2022/02/19 10:30:27;;;;;;;8.15;2.30;;;;;;;5.72;63.17;100345.84;5090859;28;20058;-86
2022/02/19 10:33:00;;;;;;;4.38;1.58;;;;;;;5.75;64.01;100343.25;5107950;27;20067;-85
2022/02/19 10:35:38;;;;;;;7.18;1.42;;;;;;;5.67;64.11;100357.03;5086564;27;20050;-85
2022/02/19 10:38:11;;;;;;;1.98;1.30;;;;;;;5.59;64.09;100347.47;5088965;27;20131;-86
2022/02/19 10:40:52;;;;;;;8.20;1.70;;;;;;;5.42;64.62;100370.72;5088263;27;20050;-86
2022/02/19 10:43:30;;;;;;;10.05;1.48;;;;;;;5.30;65.40;100365.44;5092583;27;20050;-86
2022/02/19 10:45:59;;;;;;;10.13;2.53;;;;;;;5.34;65.24;100377.56;5092456;27;20047;-86
2022/02/19 10:48:35;;;;;;;4.50;1.65;;;;;;;5.25;65.59;100380.09;5090963;27;20185;-85
2022/02/19 10:51:09;;;;;;;5.43;1.42;;;;;;;5.22;66.36;100388.72;5111765;27;20085;-86
2022/02/19 10:53:37;;;;;;;3.85;1.50;;;;;;;5.34;66.40;100397.47;5105044;27;20039;-86
2022/02/19 10:56:20;;;;;;;11.57;1.50;;;;;;;5.49;66.22;100399.31;5090273;27;20185;-84
2022/02/19 10:59:06;;;;;;;5.03;1.45;;;;;;;5.58;64.63;100379.50;5111671;27;20160;-85
2022/02/19 11:01:49;;;;;;;10.63;2.13;;;;;;;5.69;64.13;100392.53;5085579;27;20136;-84
2022/02/19 11:04:20;;;;;;;6.63;1.23;;;;;;;5.71;63.55;100392.53;5109209;27;20039;-85
2022/02/19 11:06:48;;;;;;;6.47;2.15;;;;;;;5.77;63.59;100393.44;5085757;27;20058;-85
2022/02/19 11:09:17;;;;;;;9.52;2.35;;;;;;;5.77;63.02;100393.44;5105252;27;20044;-85
2022/02/19 11:11:46;;;;;;;8.93;1.60;;;;;;;5.70;62.57;100390.84;5092188;27;20124;-84
2022/02/19 11:14:17;;;;;;;6.55;1.35;;;;;;;5.80;62.64;100396.09;5097433;27;20058;-84
2022/02/19 11:16:45;;;;;;;7.32;1.25;;;;;;;5.93;62.58;100394.44;5105387;27;20732;-84
2022/02/19 11:19:11;;;;;;;7.38;1.85;;;;;;;6.08;61.32;100370.28;5073162;27;20055;-84
2022/02/19 11:21:39;;;;;;;5.25;1.20;;;;;;;6.06;61.48;100392.81;5093455;27;20060;-85
2022/02/19 11:24:11;;;;;;;3.35;1.20;;;;;;;6.08;60.31;100388.47;5088977;27;20051;-86
2022/02/19 11:26:39;;;;;;;13.00;3.25;;;;;;;5.99;60.51;100388.44;5092427;27;20043;-86
2022/02/19 11:29:12;;;;;;;3.97;1.52;;;;;;;6.09;59.61;100381.56;5088767;28;20051;-85
2022/02/19 11:31:42;;;;;;;7.25;1.35;;;;;;;6.15;59.51;100398.91;5080594;27;20735;-86
2022/02/19 11:34:09;;;;;;;12.45;1.88;;;;;;;6.29;59.80;100392.03;5090823;27;20143;-85
2022/02/19 11:36:36;;;;;;;8.90;2.42;;;;;;;6.41;57.99;100373.91;5111082;27;20047;-85
2022/02/19 11:39:06;;;;;;;4.45;1.08;;;;;;;6.45;57.83;100374.78;5106851;27;20478;-85
2022/02/19 11:41:42;;;;;;;7.70;1.58;;;;;;;6.57;56.88;100387.81;5099716;27;23357;-85
2022/02/19 11:44:18;;;;;;;5.65;0.98;;;;;;;6.65;56.20;100385.25;5090762;27;20056;-85
2022/02/19 11:46:45;;;;;;;5.90;1.05;;;;;;;6.65;56.11;100390.44;5105253;27;20050;-85
2022/02/19 11:49:26;;;;;;;5.28;1.63;;;;;;;6.72;56.39;100389.59;5092079;27;20054;-85
2022/02/19 11:52:05;;;;;;;6.65;1.02;;;;;;;6.49;55.83;100373.91;5120990;27;20067;-85
2022/02/19 11:54:32;;;;;;;5.72;1.23;;;;;;;6.40;56.91;100398.16;5108411;27;20043;-85